Terminal Aerodrome Forecast
Issued by NWS Glasgow, MT

Home | Current Version | Previous Version | Text Only | Print | Product List | Glossary On
Versions: 1 2 3 4 5 6 7 8 9 10 11 12 13 14 15 16 17 18 19 20
000
FTUS45 KGGW 301149
TAFGGW
TAF
KGGW 301149Z 3012/3112 31006KT 2SM FU BKN120
     FM301800 33010KT 6SM FU BKN120=

USA.gov is the U.S. government's official web portal to all federal, state and local government web resources and services.